Flugplatz Peenemünde

Für EDCP sind keine METAR/TAF Berichte vorhanden.
Es werden die Flugwettermeldungen vom Flugplatz Heringsdorf in 39 km Entfernung angezeigt.

Bericht für EDAH

vom 31.05. um 10:20 UTC

Wind 14 kt aus 30°

Sichtweite 10 km oder mehr

gute Sicht, keine Wolken < 5000 ft, keine CB, keine Wettererscheinungen (CAVOK)

Temperatur 16.0°C

Taupunkt 10.0°C

Luftfeuchtigkeit 68%

Luftdruck 1023 hPa

EDAH 311020Z 03014KT 360V060 CAVOK 16/10 Q1023

Prognose für EDAH

vom 31.05. um 08:00 UTC

Zwischen 09:00 UTC und 18:00 UTC

Wind 15 kt aus 30° in Böen 25 kt

Sichtweite 10 km oder mehr

keine signifikanten Wettererscheinungen

keine Wolken

TAF EDAH 310800Z 3109/3118 03015G25KT CAVOK
Impressum